This is the latest recevied weather packets stored in our database for station/object AB0TJ. If no packets are shown the sender has not sent any weather packets the latest 1 day(s).
| Time | Temp. | Humidity | Pressure | Rain* | Wind** | Luminosity | Snow |
|---|---|---|---|---|---|---|---|
| 1778083018 | 10.56° C | 44% | 1016.8 hPa | 0 mm | - | 518 W/m² | - |
| 1778082524 | 10° C | 45% | 1015.1 hPa | 0 mm | - | 493 W/m² | - |
| 1778072257 | 5.56° C | 80% | 1012.9 hPa | 1.02 mm | - | 8 W/m² | - |
| 1778068973 | 8.89° C | 71% | 1010.8 hPa | 0.25 mm | - | 0 W/m² | - |
| 1778067889 | 8.89° C | 64% | 1010.1 hPa | 0.25 mm | - | 0 W/m² | - |
| 1778063664 | 9.44° C | 55% | 1009.3 hPa | 0 mm | - | 0 W/m² | - |
| 1778059935 | 10° C | 53% | 1009.5 hPa | 0 mm | - | 0 W/m² | - |
| 1778058859 | 10° C | 51% | 1008.7 hPa | 0 mm | - | 0 W/m² | - |
| 1778057122 | 10° C | 54% | 1008.5 hPa | 0 mm | - | 0 W/m² | - |
| 1778054919 | 10.56° C | 51% | 1008.6 hPa | 0 mm | - | 0 W/m² | - |
| 1778050692 | 11.67° C | 49% | 1009.9 hPa | 0 mm | - | 0 W/m² | - |
| 1778046872 | 13.33° C | 45% | 1009.1 hPa | 0 mm | - | 0 W/m² | - |
| 1778040777 | 13.89° C | 44% | 1008.7 hPa | 0 mm | - | 0 W/m² | - |
| 1778040294 | 13.89° C | 44% | 1008.9 hPa | 0 mm | - | 0 W/m² | - |
| 1778039224 | 13.89° C | 44% | 1008.4 hPa | 0 mm | - | 0 W/m² | - |
| 1778038164 | 14.44° C | 43% | 1008.1 hPa | 0 mm | - | 0 W/m² | - |
| 1778035912 | 14.44° C | 42% | 1007.6 hPa | 0 mm | - | 0 W/m² | - |
| 1778034349 | 15° C | 42% | 1007.5 hPa | 0 mm | - | 0 W/m² | - |
| 1778033752 | 15° C | 41% | 1007.2 hPa | 0 mm | - | 1 W/m² | - |
| 1778033232 | 15° C | 40% | 1007.2 hPa | 0 mm | - | 3 W/m² | - |
| 1778032732 | 15.56° C | 39% | 1007 hPa | 0 mm | - | 5 W/m² | - |
| 1778031592 | 16.11° C | 37% | 1006.5 hPa | 0 mm | - | 17 W/m² | - |
| 1778030499 | 16.67° C | 35% | 1006 hPa | 0 mm | - | 39 W/m² | - |
| 1778028884 | 17.78° C | 34% | 1005.5 hPa | 0 mm | - | 72 W/m² | - |
| 1778028333 | 18.33° C | 33% | 1005.2 hPa | 0 mm | - | 72 W/m² | - |
* Rain latest hour (hover to see other rain measurements)
** Current wind speed in m/s (hover to see current wind gust speed)